createdAt,value
2018-04-19T00:01:03.295Z,8.60
2018-04-19T00:03:30.622Z,9.63
2018-04-19T00:05:57.618Z,9.82
2018-04-19T00:08:25.320Z,8.38
2018-04-19T00:10:52.280Z,9.70
2018-04-19T00:13:20.509Z,10.00
2018-04-19T00:15:47.298Z,10.38
2018-04-19T00:18:14.086Z,9.60
2018-04-19T00:20:41.022Z,10.60
2018-04-19T00:23:08.136Z,9.57
2018-04-19T00:25:34.967Z,9.93
2018-04-19T00:28:02.065Z,9.52
2018-04-19T00:30:29.705Z,10.25
2018-04-19T00:32:56.640Z,9.95
2018-04-19T00:35:23.364Z,10.20
2018-04-19T00:37:50.202Z,10.90
2018-04-19T00:40:17.310Z,9.80
2018-04-19T00:42:48.160Z,10.63
2018-04-19T00:45:14.983Z,9.88
2018-04-19T00:47:41.714Z,9.98
2018-04-19T00:50:08.836Z,11.57
2018-04-19T00:52:41.585Z,9.43
2018-04-19T00:55:08.647Z,9.90
2018-04-19T00:57:35.602Z,11.52
2018-04-19T01:00:02.453Z,9.70
2018-04-19T01:02:29.375Z,11.25
2018-04-19T01:04:56.366Z,10.32
2018-04-19T01:07:23.175Z,10.55
2018-04-19T01:09:49.878Z,10.90
2018-04-19T01:12:16.954Z,10.60
2018-04-19T01:14:44.592Z,10.38
2018-04-19T01:17:12.177Z,12.55
2018-04-19T01:19:39.121Z,11.63
2018-04-19T01:22:06.271Z,12.40
2018-04-19T01:24:33.522Z,12.73
2018-04-19T01:27:00.320Z,10.80
2018-04-19T01:29:27.160Z,10.38
2018-04-19T01:31:54.100Z,10.50
2018-04-19T01:34:21.662Z,11.85
2018-04-19T01:36:48.778Z,9.27
2018-04-19T01:39:17.293Z,11.30
2018-04-19T01:41:44.669Z,10.85
2018-04-19T01:44:11.505Z,10.27
2018-04-19T01:46:38.392Z,10.10
2018-04-19T01:49:05.735Z,10.70
2018-04-19T01:51:32.571Z,11.02
2018-04-19T01:53:59.500Z,10.60
2018-04-19T01:56:26.221Z,9.65
2018-04-19T01:58:53.002Z,10.18
2018-04-19T02:01:23.786Z,9.70
2018-04-19T02:03:51.735Z,10.48
2018-04-19T02:06:18.672Z,9.90
2018-04-19T02:08:46.032Z,8.93
2018-04-19T02:11:13.596Z,10.50
2018-04-19T02:13:40.489Z,9.68
2018-04-19T02:16:07.251Z,10.70
2018-04-19T02:18:34.009Z,9.75
2018-04-19T02:21:01.098Z,9.15
2018-04-19T02:23:29.762Z,10.95
2018-04-19T02:25:57.360Z,10.10
2018-04-19T02:28:24.115Z,9.57
2018-04-19T02:30:50.932Z,10.90
2018-04-19T02:33:17.843Z,11.32
2018-04-19T02:35:45.637Z,10.18
2018-04-19T02:38:12.456Z,10.38
2018-04-19T02:40:39.234Z,10.90
2018-04-19T02:43:06.091Z,9.70
2018-04-19T02:45:32.976Z,9.63
2018-04-19T02:47:59.747Z,9.45
2018-04-19T02:50:26.704Z,10.50
2018-04-19T02:52:54.196Z,10.13
2018-04-19T02:55:21.257Z,10.85
2018-04-19T02:57:48.331Z,12.63
2018-04-19T03:00:15.237Z,10.77
2018-04-19T03:02:42.295Z,12.02
2018-04-19T03:05:10.011Z,10.75
2018-04-19T03:07:38.178Z,11.15
2018-04-19T03:10:05.006Z,11.38
2018-04-19T03:12:32.187Z,11.02
2018-04-19T03:14:59.126Z,11.50
2018-04-19T03:17:26.867Z,11.52
2018-04-19T03:19:54.178Z,12.05
2018-04-19T03:22:21.081Z,11.32
2018-04-19T03:24:49.140Z,11.00
2018-04-19T03:27:16.031Z,12.68
2018-04-19T03:29:42.788Z,11.90
2018-04-19T03:32:09.539Z,12.55
2018-04-19T03:34:36.293Z,11.07
2018-04-19T03:37:03.851Z,11.75
2018-04-19T03:39:38.911Z,12.90
2018-04-19T03:42:06.989Z,13.10
2018-04-19T03:44:33.790Z,13.60
2018-04-19T03:47:01.170Z,12.60
2018-04-19T03:49:28.792Z,13.23
2018-04-19T03:51:56.207Z,12.93
2018-04-19T03:54:23.042Z,13.45
2018-04-19T03:56:49.911Z,12.98
2018-04-19T03:59:17.051Z,12.85
2018-04-19T04:01:44.952Z,14.60
2018-04-19T04:04:11.790Z,12.82
2018-04-19T04:06:38.512Z,12.05
2018-04-19T04:09:05.263Z,14.70
2018-04-19T04:11:32.028Z,13.40
2018-04-19T04:13:58.873Z,12.13
2018-04-19T04:16:31.653Z,12.75
2018-04-19T04:19:04.223Z,12.77
2018-04-19T04:21:32.527Z,13.13
2018-04-19T04:23:59.384Z,12.15
2018-04-19T04:26:26.924Z,11.32
2018-04-19T04:28:54.335Z,13.52
2018-04-19T04:31:21.181Z,11.52
2018-04-19T04:33:48.196Z,11.77
2018-04-19T04:36:15.450Z,12.07
2018-04-19T04:38:42.897Z,12.30
2018-04-19T04:41:11.306Z,11.68
2018-04-19T04:43:38.279Z,12.10
2018-04-19T04:46:04.998Z,11.23
2018-04-19T04:48:32.587Z,11.60
2018-04-19T04:51:05.767Z,11.50
2018-04-19T04:53:32.656Z,12.18
2018-04-19T04:55:59.607Z,12.40
2018-04-19T04:58:28.317Z,12.18
2018-04-19T05:00:55.622Z,13.90
2018-04-19T05:03:26.885Z,12.30
2018-04-19T05:05:53.701Z,11.98
2018-04-19T05:08:23.381Z,13.27
2018-04-19T05:10:50.107Z,12.37
2018-04-19T05:13:16.982Z,13.82
2018-04-19T05:15:43.885Z,13.38
2018-04-19T05:18:10.777Z,12.35
2018-04-19T05:20:37.588Z,11.63
2018-04-19T05:23:04.371Z,12.25
2018-04-19T05:25:31.178Z,10.55
2018-04-19T05:27:58.780Z,12.68
2018-04-19T05:30:25.613Z,11.50
2018-04-19T05:32:52.385Z,11.38
2018-04-19T05:35:19.259Z,11.70
2018-04-19T05:37:47.308Z,11.10
2018-04-19T05:40:14.985Z,10.90
2018-04-19T05:42:45.455Z,10.32
2018-04-19T05:45:12.497Z,11.60
2018-04-19T05:47:39.264Z,10.88
2018-04-19T05:50:06.106Z,13.75
2018-04-19T05:52:32.889Z,11.75
2018-04-19T05:54:59.807Z,12.20
2018-04-19T05:57:26.688Z,12.80
2018-04-19T05:59:53.520Z,11.35
2018-04-19T06:02:20.360Z,12.82
2018-04-19T06:04:47.189Z,12.85
2018-04-19T06:07:14.005Z,11.40
2018-04-19T06:09:40.784Z,12.68
2018-04-19T06:12:07.530Z,11.60
2018-04-19T06:14:34.305Z,11.57
2018-04-19T06:17:01.038Z,14.20
2018-04-19T06:19:27.759Z,13.70
2018-04-19T06:21:54.524Z,13.45
2018-04-19T06:24:21.269Z,14.00
2018-04-19T06:26:48.010Z,12.80
2018-04-19T06:29:14.808Z,12.30
2018-04-19T06:31:41.681Z,12.30
2018-04-19T06:34:08.508Z,12.67
2018-04-19T06:36:35.369Z,13.00
2018-04-19T06:39:02.110Z,12.10
2018-04-19T06:41:28.898Z,14.87
2018-04-19T06:43:55.567Z,15.20
2018-04-19T06:46:22.329Z,16.43
2018-04-19T06:48:49.063Z,999.90
2018-04-19T06:51:15.996Z,999.90
2018-04-19T06:53:42.730Z,999.90
2018-04-19T06:56:09.518Z,999.90
2018-04-19T06:58:36.276Z,999.90
2018-04-19T07:01:03.002Z,999.90
2018-04-19T07:03:29.765Z,999.90
2018-04-19T07:05:56.568Z,999.90
2018-04-19T07:08:24.153Z,999.90
2018-04-19T07:10:50.821Z,999.90
2018-04-19T07:13:17.601Z,14.80
2018-04-19T07:15:44.408Z,11.50
2018-04-19T07:18:11.213Z,11.90
2018-04-19T07:20:37.966Z,14.30
2018-04-19T07:23:04.832Z,13.93
2018-04-19T07:25:31.887Z,15.57
2018-04-19T07:27:58.821Z,24.23
2018-04-19T07:30:25.507Z,12.93
2018-04-19T07:32:52.313Z,14.50
2018-04-19T07:35:19.707Z,14.70
2018-04-19T07:37:46.514Z,12.50
2018-04-19T07:40:13.339Z,15.63
2018-04-19T07:42:40.962Z,12.73
2018-04-19T07:45:08.157Z,13.03
2018-04-19T07:47:37.090Z,12.20
2018-04-19T07:50:03.924Z,11.67
2018-04-19T07:52:31.184Z,11.03
2018-04-19T07:54:59.080Z,11.23
2018-04-19T07:57:25.866Z,11.50
2018-04-19T07:59:52.715Z,11.40
2018-04-19T08:02:19.529Z,11.10
2018-04-19T08:04:46.550Z,11.40
2018-04-19T08:07:13.515Z,11.90
2018-04-19T08:09:40.329Z,11.47
2018-04-19T08:12:07.130Z,11.60
2018-04-19T08:14:33.965Z,13.47
2018-04-19T08:17:00.839Z,10.63
2018-04-19T08:19:27.617Z,12.27
2018-04-19T08:21:54.395Z,12.60
2018-04-19T08:24:21.253Z,12.17
2018-04-19T08:26:48.099Z,11.10
2018-04-19T08:29:14.807Z,12.10
2018-04-19T08:31:41.551Z,10.20
2018-04-19T08:34:08.362Z,9.60
2018-04-19T08:36:35.156Z,9.60
2018-04-19T08:39:01.934Z,10.47
2018-04-19T08:41:28.796Z,10.50
2018-04-19T08:43:55.581Z,10.10
2018-04-19T08:46:22.345Z,10.40
2018-04-19T08:48:49.188Z,10.00
2018-04-19T08:51:15.889Z,9.27
2018-04-19T08:53:42.641Z,10.17
2018-04-19T08:56:09.388Z,9.70
2018-04-19T08:58:36.432Z,8.60
2018-04-19T09:01:03.360Z,11.40
2018-04-19T09:03:30.216Z,9.80
2018-04-19T09:05:57.044Z,9.20
2018-04-19T09:08:23.925Z,9.37
2018-04-19T09:10:50.770Z,8.53
2018-04-19T09:13:17.516Z,8.87
2018-04-19T09:15:44.311Z,7.97
2018-04-19T09:18:11.015Z,8.10
2018-04-19T09:20:37.918Z,8.40
2018-04-19T09:23:04.651Z,8.10
2018-04-19T09:25:31.440Z,7.47
2018-04-19T09:27:58.382Z,7.63
2018-04-19T09:30:25.101Z,7.57
2018-04-19T09:32:51.869Z,6.53
2018-04-19T09:35:18.656Z,5.80
2018-04-19T09:37:45.373Z,5.13
2018-04-19T09:40:12.232Z,8.00
2018-04-19T09:42:38.955Z,7.17
2018-04-19T09:45:05.800Z,8.40
2018-04-19T09:47:32.703Z,8.23
2018-04-19T09:49:59.525Z,7.60
2018-04-19T09:52:26.459Z,8.07
2018-04-19T09:54:53.208Z,7.40
2018-04-19T09:57:19.951Z,8.40
2018-04-19T09:59:46.827Z,9.17
2018-04-19T10:02:13.668Z,7.93
2018-04-19T10:04:40.485Z,9.20
2018-04-19T10:07:07.347Z,8.47
2018-04-19T10:09:35.478Z,8.27
2018-04-19T10:12:02.450Z,8.50
2018-04-19T10:14:33.501Z,9.27
2018-04-19T10:17:00.630Z,8.80
2018-04-19T10:19:28.300Z,8.63
2018-04-19T10:21:55.875Z,9.10
2018-04-19T10:24:23.537Z,8.47
2018-04-19T10:26:51.973Z,8.50
2018-04-19T10:29:22.860Z,7.80
2018-04-19T10:31:49.695Z,7.83
2018-04-19T10:34:16.492Z,8.97
2018-04-19T10:36:43.834Z,8.23
2018-04-19T10:39:10.679Z,8.60
2018-04-19T10:41:38.289Z,8.07
2018-04-19T10:44:05.799Z,7.57
2018-04-19T10:46:32.730Z,8.13
2018-04-19T10:48:59.821Z,8.50
2018-04-19T10:51:27.927Z,7.90
2018-04-19T10:53:54.669Z,7.70
2018-04-19T10:56:21.746Z,7.40
2018-04-19T10:58:48.836Z,7.17
2018-04-19T11:01:15.657Z,6.70
2018-04-19T11:03:42.489Z,6.40
2018-04-19T11:06:09.667Z,6.47
2018-04-19T11:08:36.504Z,7.00
2018-04-19T11:11:03.989Z,7.07
2018-04-19T11:13:30.800Z,7.50
2018-04-19T11:15:57.893Z,6.00
2018-04-19T11:18:24.905Z,6.20
2018-04-19T11:20:51.888Z,5.70
2018-04-19T11:23:18.833Z,5.90
2018-04-19T11:25:45.796Z,5.67
2018-04-19T11:28:14.199Z,5.93
2018-04-19T11:30:42.686Z,5.03
2018-04-19T11:33:09.547Z,5.67
2018-04-19T11:35:36.466Z,5.57
2018-04-19T11:38:03.324Z,5.80
2018-04-19T11:40:30.143Z,5.30
2018-04-19T11:42:57.070Z,5.80
2018-04-19T11:45:25.742Z,4.40
2018-04-19T11:47:52.851Z,4.90
2018-04-19T11:50:19.837Z,4.93
2018-04-19T11:52:46.700Z,4.83
2018-04-19T11:55:13.624Z,5.23
2018-04-19T11:57:40.648Z,5.20
2018-04-19T12:00:07.469Z,4.87
2018-04-19T12:02:34.933Z,5.23
2018-04-19T12:05:01.782Z,4.70
2018-04-19T12:07:28.552Z,4.23
2018-04-19T12:09:55.510Z,4.50
2018-04-19T12:12:25.891Z,3.40
2018-04-19T12:14:52.718Z,4.00
2018-04-19T12:17:20.078Z,3.90
2018-04-19T12:19:47.550Z,3.30
2018-04-19T12:22:14.938Z,3.60
2018-04-19T12:24:41.790Z,3.40
2018-04-19T12:27:08.836Z,3.30
2018-04-19T12:29:35.693Z,3.63
2018-04-19T12:32:02.741Z,3.10
2018-04-19T12:34:30.319Z,3.03
2018-04-19T12:36:57.153Z,3.33
2018-04-19T12:39:23.886Z,3.20
2018-04-19T12:41:50.727Z,3.17
2018-04-19T12:44:17.503Z,3.17
2018-04-19T12:46:44.262Z,3.30
2018-04-19T12:49:11.049Z,3.60
2018-04-19T12:51:37.869Z,3.40
2018-04-19T12:54:04.647Z,3.03
2018-04-19T12:56:31.409Z,3.10
2018-04-19T12:58:58.501Z,3.27
2018-04-19T13:01:25.225Z,4.10
2018-04-19T13:03:52.072Z,3.40
2018-04-19T13:06:18.821Z,3.50
2018-04-19T13:08:45.595Z,4.03
2018-04-19T13:11:12.296Z,3.33
2018-04-19T13:13:39.177Z,3.07
2018-04-19T13:16:05.947Z,3.10
2018-04-19T13:18:32.677Z,3.30
2018-04-19T13:20:59.459Z,2.60
2018-04-19T13:23:26.188Z,2.90
2018-04-19T13:25:53.243Z,3.10
2018-04-19T13:28:19.996Z,3.27
2018-04-19T13:30:46.697Z,3.07
2018-04-19T13:33:13.516Z,3.53
2018-04-19T13:35:40.398Z,3.20
2018-04-19T13:38:07.228Z,2.50
2018-04-19T13:40:33.954Z,3.37
2018-04-19T13:43:00.677Z,2.87
2018-04-19T13:45:27.510Z,3.60
2018-04-19T13:47:54.271Z,2.90
2018-04-19T13:50:21.048Z,2.93
2018-04-19T13:52:47.855Z,3.40
2018-04-19T13:55:14.696Z,3.00
2018-04-19T13:57:41.672Z,3.00
2018-04-19T14:00:13.260Z,2.77
2018-04-19T14:02:40.119Z,2.60
2018-04-19T14:05:06.830Z,2.50
2018-04-19T14:07:33.521Z,2.60
2018-04-19T14:10:00.396Z,2.87
2018-04-19T14:12:27.238Z,2.67
2018-04-19T14:14:54.142Z,2.50
2018-04-19T14:17:21.083Z,2.40
2018-04-19T14:19:48.716Z,3.10
2018-04-19T14:22:15.611Z,2.93
2018-04-19T14:24:42.462Z,3.13
2018-04-19T14:27:09.323Z,3.37
2018-04-19T14:29:36.004Z,3.33
2018-04-19T14:32:02.789Z,3.40
2018-04-19T14:34:29.941Z,3.77
2018-04-19T14:36:56.726Z,2.90
2018-04-19T14:39:23.460Z,3.33
2018-04-19T14:41:50.323Z,3.23
2018-04-19T14:44:17.098Z,3.90
2018-04-19T14:46:43.927Z,4.07
2018-04-19T14:49:10.863Z,3.40
2018-04-19T14:51:37.655Z,3.90
2018-04-19T14:54:04.505Z,4.23
2018-04-19T14:56:31.503Z,3.83
2018-04-19T14:58:58.281Z,4.20
2018-04-19T15:01:25.117Z,4.20
2018-04-19T15:03:51.979Z,4.30
2018-04-19T15:06:18.804Z,4.53
2018-04-19T15:08:45.533Z,3.83
2018-04-19T15:11:12.581Z,3.90
2018-04-19T15:13:39.311Z,4.27
2018-04-19T15:16:06.074Z,4.23
2018-04-19T15:18:32.872Z,4.13
2018-04-19T15:20:59.580Z,4.97
2018-04-19T15:23:26.305Z,4.37
2018-04-19T15:25:53.182Z,4.40
2018-04-19T15:28:19.948Z,4.80
2018-04-19T15:30:46.786Z,4.30
2018-04-19T15:33:13.563Z,4.70
2018-04-19T15:35:40.307Z,4.17
2018-04-19T15:38:07.104Z,4.27
2018-04-19T15:40:33.961Z,4.27
2018-04-19T15:43:00.792Z,4.30
2018-04-19T15:45:27.587Z,3.67
2018-04-19T15:47:54.470Z,3.50
2018-04-19T15:50:21.426Z,4.03
2018-04-19T15:52:48.232Z,3.80
2018-04-19T15:55:15.000Z,4.10
2018-04-19T15:57:41.792Z,3.73
2018-04-19T16:00:08.588Z,4.00
2018-04-19T16:02:35.328Z,3.70
2018-04-19T16:05:02.151Z,4.33
2018-04-19T16:07:28.986Z,4.10
2018-04-19T16:09:55.944Z,4.00
2018-04-19T16:12:22.700Z,3.90
2018-04-19T16:14:49.427Z,3.63
2018-04-19T16:17:16.369Z,4.60
2018-04-19T16:19:43.316Z,4.10
2018-04-19T16:22:10.056Z,3.80
2018-04-19T16:24:36.865Z,4.00
2018-04-19T16:27:03.857Z,4.10
2018-04-19T16:29:30.588Z,3.83
2018-04-19T16:31:58.636Z,3.70
2018-04-19T16:34:25.461Z,3.87
2018-04-19T16:36:52.186Z,4.60
2018-04-19T16:39:19.071Z,4.70
2018-04-19T16:41:46.048Z,4.20
2018-04-19T16:44:12.840Z,7.03
2018-04-19T16:46:39.555Z,6.93
2018-04-19T16:49:06.311Z,4.57
2018-04-19T16:51:33.314Z,3.80
2018-04-19T16:54:00.018Z,4.40
2018-04-19T16:56:26.842Z,4.47
2018-04-19T16:58:53.693Z,4.70
2018-04-19T17:01:20.403Z,5.60
2018-04-19T17:03:47.172Z,5.20
2018-04-19T17:06:13.924Z,4.87
2018-04-19T17:08:41.159Z,4.20
2018-04-19T17:11:08.170Z,4.47
2018-04-19T17:13:34.942Z,4.03
2018-04-19T17:16:01.680Z,3.80
2018-04-19T17:18:28.581Z,4.50
2018-04-19T17:20:55.676Z,3.63
2018-04-19T17:23:22.510Z,4.27
2018-04-19T17:25:49.292Z,3.70
2018-04-19T17:28:16.057Z,4.10
2018-04-19T17:30:42.886Z,4.10
2018-04-19T17:33:09.674Z,3.77
2018-04-19T17:35:36.684Z,4.33
2018-04-19T17:38:04.126Z,4.40
2018-04-19T17:40:31.076Z,4.40
2018-04-19T17:42:57.809Z,4.33
2018-04-19T17:45:24.797Z,4.20
2018-04-19T17:47:51.551Z,4.80
2018-04-19T17:50:18.481Z,4.40
2018-04-19T17:52:45.265Z,4.03
2018-04-19T17:55:12.046Z,4.17
2018-04-19T17:57:38.795Z,4.37
2018-04-19T18:00:05.514Z,4.47
2018-04-19T18:02:32.291Z,4.20
2018-04-19T18:04:59.007Z,4.47
2018-04-19T18:07:25.807Z,5.67
2018-04-19T18:09:52.551Z,4.93
2018-04-19T18:12:19.283Z,5.20
2018-04-19T18:14:46.100Z,4.80
2018-04-19T18:17:12.978Z,4.00
2018-04-19T18:19:39.758Z,4.80
2018-04-19T18:22:06.657Z,5.00
2018-04-19T18:24:33.433Z,4.50
2018-04-19T18:27:01.373Z,4.93
2018-04-19T18:29:28.243Z,5.00
2018-04-19T18:31:54.994Z,4.10
2018-04-19T18:34:22.055Z,5.10
2018-04-19T18:36:48.916Z,4.50
2018-04-19T18:39:15.661Z,4.43
2018-04-19T18:41:42.424Z,4.83
2018-04-19T18:44:09.274Z,4.50
2018-04-19T18:46:36.161Z,4.90
2018-04-19T18:49:03.160Z,4.40
2018-04-19T18:51:30.155Z,4.40
2018-04-19T18:53:57.567Z,4.20
2018-04-19T18:56:24.765Z,6.27
2018-04-19T18:58:51.618Z,5.30
2018-04-19T19:01:18.252Z,5.80
2018-04-19T19:03:45.080Z,4.40
2018-04-19T19:06:11.828Z,5.33
2018-04-19T19:08:38.671Z,4.97
2018-04-19T19:11:06.125Z,6.50
2018-04-19T19:13:32.859Z,5.57
2018-04-19T19:16:14.548Z,4.93
2018-04-19T19:18:47.245Z,5.37
2018-04-19T19:21:14.093Z,6.00
2018-04-19T19:23:41.043Z,5.43
2018-04-19T19:26:08.614Z,6.60
2018-04-19T19:28:35.502Z,5.70
2018-04-19T19:31:02.248Z,6.27
2018-04-19T19:33:29.965Z,6.80
2018-04-19T19:35:56.874Z,6.20
2018-04-19T19:38:23.681Z,5.67
2018-04-19T19:40:50.429Z,6.10
2018-04-19T19:43:17.235Z,5.73
2018-04-19T19:45:44.738Z,6.30
2018-04-19T19:48:11.393Z,6.57
2018-04-19T19:50:38.091Z,6.83
2018-04-19T19:53:04.914Z,6.43
2018-04-19T19:55:31.735Z,6.70
2018-04-19T19:57:58.774Z,6.30
2018-04-19T20:00:25.589Z,6.67
2018-04-19T20:02:52.633Z,6.40
2018-04-19T20:05:19.390Z,7.60
2018-04-19T20:07:46.136Z,6.80
2018-04-19T20:10:13.062Z,6.03
2018-04-19T20:12:39.875Z,6.63
2018-04-19T20:15:06.735Z,6.50
2018-04-19T20:17:33.447Z,7.43
2018-04-19T20:20:00.367Z,7.20
2018-04-19T20:22:27.059Z,6.00
2018-04-19T20:24:53.706Z,7.70
2018-04-19T20:27:20.386Z,6.97
2018-04-19T20:29:47.011Z,6.33
2018-04-19T20:32:13.688Z,6.80
2018-04-19T20:34:40.300Z,6.57
2018-04-19T20:37:06.951Z,7.23
2018-04-19T20:39:33.578Z,7.03
2018-04-19T20:42:00.243Z,6.43
2018-04-19T20:44:26.927Z,6.40
2018-04-19T20:46:53.649Z,6.90
2018-04-19T20:49:21.125Z,6.47
2018-04-19T20:51:47.952Z,6.00
2018-04-19T20:54:14.610Z,6.87
2018-04-19T20:56:41.310Z,6.20
2018-04-19T20:59:07.996Z,6.97
2018-04-19T21:01:34.615Z,7.00
2018-04-19T21:04:01.282Z,5.60
2018-04-19T21:06:27.963Z,6.80
2018-04-19T21:08:54.757Z,5.90
2018-04-19T21:11:21.451Z,6.60
2018-04-19T21:13:48.220Z,5.73
2018-04-19T21:16:15.581Z,6.10
2018-04-19T21:18:42.329Z,5.60
2018-04-19T21:21:09.073Z,4.73
2018-04-19T21:23:35.869Z,5.70
2018-04-19T21:26:02.625Z,5.20
2018-04-19T21:28:29.294Z,5.47
2018-04-19T21:30:56.762Z,5.27
2018-04-19T21:33:23.530Z,4.80
2018-04-19T21:35:50.260Z,5.50
2018-04-19T21:38:17.095Z,5.10
2018-04-19T21:40:43.951Z,6.13
2018-04-19T21:43:10.788Z,5.40
2018-04-19T21:45:37.564Z,5.37
2018-04-19T21:48:04.287Z,4.80
2018-04-19T21:50:31.083Z,5.67
2018-04-19T21:52:57.812Z,4.93
2018-04-19T21:55:24.503Z,5.30
2018-04-19T21:57:51.229Z,5.05
2018-04-19T22:00:17.944Z,5.17
2018-04-19T22:02:44.765Z,5.40
2018-04-19T22:05:11.504Z,5.07
2018-04-19T22:07:38.327Z,5.15
2018-04-19T22:10:05.033Z,5.30
2018-04-19T22:12:31.668Z,5.20
2018-04-19T22:14:58.441Z,5.22
2018-04-19T22:17:25.132Z,5.53
2018-04-19T22:19:51.759Z,5.37
2018-04-19T22:22:18.494Z,5.90
2018-04-19T22:24:45.138Z,4.97
2018-04-19T22:27:11.755Z,5.37
2018-04-19T22:29:38.469Z,4.80
2018-04-19T22:32:05.102Z,5.70
2018-04-19T22:34:32.348Z,4.75
2018-04-19T22:36:58.969Z,6.25
2018-04-19T22:39:25.647Z,5.82
2018-04-19T22:41:52.285Z,6.05
2018-04-19T22:44:18.979Z,6.10
2018-04-19T22:46:45.674Z,5.62
2018-04-19T22:49:12.354Z,5.20
2018-04-19T22:51:39.071Z,5.12
2018-04-19T22:54:05.738Z,5.22
2018-04-19T22:56:32.458Z,5.37
2018-04-19T22:58:59.150Z,5.55
2018-04-19T23:01:25.851Z,5.53
2018-04-19T23:03:52.539Z,5.65
2018-04-19T23:06:19.313Z,6.07
2018-04-19T23:08:46.050Z,7.03
2018-04-19T23:11:12.741Z,6.32
2018-04-19T23:13:39.409Z,7.20
2018-04-19T23:16:06.124Z,6.85
2018-04-19T23:18:32.799Z,8.05
2018-04-19T23:20:59.482Z,7.90
2018-04-19T23:23:26.152Z,7.53
2018-04-19T23:25:52.848Z,7.57
2018-04-19T23:28:19.527Z,8.93
2018-04-19T23:30:46.194Z,8.40
2018-04-19T23:33:12.883Z,8.05
2018-04-19T23:35:39.541Z,8.77
2018-04-19T23:38:06.222Z,8.32
2018-04-19T23:40:32.881Z,8.73
2018-04-19T23:42:59.562Z,9.13
2018-04-19T23:45:26.234Z,7.87
2018-04-19T23:47:52.954Z,7.30
2018-04-19T23:50:19.635Z,8.27
2018-04-19T23:52:46.316Z,7.80
2018-04-19T23:55:12.977Z,7.03
2018-04-19T23:57:39.667Z,7.25
